sensor_id;sensor_type;location;lat;lon;timestamp;P1;durP1;ratioP1;P2;durP2;ratioP2
56255;SDS011;57229;51.432;-2.598;2023-10-31T00:01:27;10.82;;;6.07;;
56255;SDS011;57229;51.432;-2.598;2023-10-31T00:03:53;13.25;;;6.20;;
56255;SDS011;57229;51.432;-2.598;2023-10-31T00:06:18;15.68;;;6.50;;
56255;SDS011;57229;51.432;-2.598;2023-10-31T00:08:44;15.30;;;6.53;;
56255;SDS011;57229;51.432;-2.598;2023-10-31T00:11:10;10.93;;;6.70;;
56255;SDS011;57229;51.432;-2.598;2023-10-31T00:13:35;24.02;;;7.80;;
56255;SDS011;57229;51.432;-2.598;2023-10-31T00:16:02;11.25;;;7.78;;
56255;SDS011;57229;51.432;-2.598;2023-10-31T00:18:28;13.10;;;7.50;;
56255;SDS011;57229;51.432;-2.598;2023-10-31T00:20:54;12.82;;;7.75;;
56255;SDS011;57229;51.432;-2.598;2023-10-31T00:23:19;14.30;;;7.55;;
56255;SDS011;57229;51.432;-2.598;2023-10-31T00:25:46;14.88;;;7.53;;
56255;SDS011;57229;51.432;-2.598;2023-10-31T00:28:12;16.58;;;7.30;;
56255;SDS011;57229;51.432;-2.598;2023-10-31T00:30:38;11.43;;;7.53;;
56255;SDS011;57229;51.432;-2.598;2023-10-31T00:33:03;13.15;;;7.13;;
56255;SDS011;57229;51.432;-2.598;2023-10-31T00:35:29;14.32;;;7.40;;
56255;SDS011;57229;51.432;-2.598;2023-10-31T00:37:55;12.98;;;7.00;;
56255;SDS011;57229;51.432;-2.598;2023-10-31T00:40:21;12.65;;;7.28;;
56255;SDS011;57229;51.432;-2.598;2023-10-31T00:42:47;18.52;;;7.28;;
56255;SDS011;57229;51.432;-2.598;2023-10-31T00:45:13;13.68;;;7.30;;
56255;SDS011;57229;51.432;-2.598;2023-10-31T00:47:39;9.40;;;7.18;;
56255;SDS011;57229;51.432;-2.598;2023-10-31T00:50:04;16.20;;;7.50;;
56255;SDS011;57229;51.432;-2.598;2023-10-31T00:52:30;10.85;;;7.10;;
56255;SDS011;57229;51.432;-2.598;2023-10-31T00:54:56;14.80;;;7.15;;
56255;SDS011;57229;51.432;-2.598;2023-10-31T00:57:22;9.23;;;7.03;;
56255;SDS011;57229;51.432;-2.598;2023-10-31T00:59:48;11.18;;;7.05;;
56255;SDS011;57229;51.432;-2.598;2023-10-31T01:02:14;9.70;;;7.03;;
56255;SDS011;57229;51.432;-2.598;2023-10-31T01:04:40;16.48;;;6.88;;
56255;SDS011;57229;51.432;-2.598;2023-10-31T01:07:06;13.65;;;7.00;;
56255;SDS011;57229;51.432;-2.598;2023-10-31T01:09:31;13.55;;;7.00;;
56255;SDS011;57229;51.432;-2.598;2023-10-31T01:11:57;13.77;;;6.90;;
56255;SDS011;57229;51.432;-2.598;2023-10-31T01:14:22;13.85;;;7.82;;
56255;SDS011;57229;51.432;-2.598;2023-10-31T01:16:48;11.35;;;6.75;;
56255;SDS011;57229;51.432;-2.598;2023-10-31T01:19:14;11.27;;;6.97;;
56255;SDS011;57229;51.432;-2.598;2023-10-31T01:21:39;14.15;;;6.80;;
56255;SDS011;57229;51.432;-2.598;2023-10-31T01:24:05;9.48;;;6.88;;
56255;SDS011;57229;51.432;-2.598;2023-10-31T01:26:31;14.57;;;6.90;;
56255;SDS011;57229;51.432;-2.598;2023-10-31T01:28:56;11.15;;;6.60;;
56255;SDS011;57229;51.432;-2.598;2023-10-31T01:31:23;12.45;;;6.90;;
56255;SDS011;57229;51.432;-2.598;2023-10-31T01:33:48;12.00;;;6.75;;
56255;SDS011;57229;51.432;-2.598;2023-10-31T01:36:14;13.82;;;6.50;;
56255;SDS011;57229;51.432;-2.598;2023-10-31T01:38:40;14.63;;;6.97;;
56255;SDS011;57229;51.432;-2.598;2023-10-31T01:41:06;10.80;;;6.50;;
56255;SDS011;57229;51.432;-2.598;2023-10-31T01:43:35;15.75;;;6.93;;
56255;SDS011;57229;51.432;-2.598;2023-10-31T01:46:01;9.65;;;6.70;;
56255;SDS011;57229;51.432;-2.598;2023-10-31T01:48:29;10.32;;;6.78;;
56255;SDS011;57229;51.432;-2.598;2023-10-31T01:50:56;10.45;;;7.28;;
56255;SDS011;57229;51.432;-2.598;2023-10-31T01:53:24;15.70;;;7.30;;
56255;SDS011;57229;51.432;-2.598;2023-10-31T01:55:54;14.93;;;7.95;;
56255;SDS011;57229;51.432;-2.598;2023-10-31T01:58:22;13.02;;;7.63;;
56255;SDS011;57229;51.432;-2.598;2023-10-31T02:00:51;15.13;;;7.35;;
56255;SDS011;57229;51.432;-2.598;2023-10-31T02:03:17;11.25;;;6.93;;
56255;SDS011;57229;51.432;-2.598;2023-10-31T02:05:43;14.52;;;6.85;;
56255;SDS011;57229;51.432;-2.598;2023-10-31T02:08:09;15.38;;;7.22;;
56255;SDS011;57229;51.432;-2.598;2023-10-31T02:10:35;13.45;;;6.97;;
56255;SDS011;57229;51.432;-2.598;2023-10-31T02:13:10;14.75;;;7.15;;
56255;SDS011;57229;51.432;-2.598;2023-10-31T02:15:36;8.23;;;6.47;;
56255;SDS011;57229;51.432;-2.598;2023-10-31T02:18:02;14.88;;;7.05;;
56255;SDS011;57229;51.432;-2.598;2023-10-31T02:20:28;18.10;;;6.78;;
56255;SDS011;57229;51.432;-2.598;2023-10-31T02:22:54;11.90;;;6.72;;
56255;SDS011;57229;51.432;-2.598;2023-10-31T02:25:19;13.32;;;6.57;;
56255;SDS011;57229;51.432;-2.598;2023-10-31T02:27:45;13.02;;;6.40;;
56255;SDS011;57229;51.432;-2.598;2023-10-31T02:30:11;16.27;;;7.57;;
56255;SDS011;57229;51.432;-2.598;2023-10-31T02:32:37;16.45;;;7.05;;
56255;SDS011;57229;51.432;-2.598;2023-10-31T02:35:03;12.23;;;6.53;;
56255;SDS011;57229;51.432;-2.598;2023-10-31T02:37:29;14.82;;;6.90;;
56255;SDS011;57229;51.432;-2.598;2023-10-31T02:39:54;12.23;;;7.03;;
56255;SDS011;57229;51.432;-2.598;2023-10-31T02:42:20;13.00;;;6.88;;
56255;SDS011;57229;51.432;-2.598;2023-10-31T02:44:45;14.18;;;6.82;;
56255;SDS011;57229;51.432;-2.598;2023-10-31T02:47:11;11.25;;;6.30;;
56255;SDS011;57229;51.432;-2.598;2023-10-31T02:49:37;18.30;;;6.43;;
56255;SDS011;57229;51.432;-2.598;2023-10-31T02:52:03;13.85;;;6.30;;
56255;SDS011;57229;51.432;-2.598;2023-10-31T02:54:28;16.42;;;6.45;;
56255;SDS011;57229;51.432;-2.598;2023-10-31T02:56:54;12.95;;;6.55;;
56255;SDS011;57229;51.432;-2.598;2023-10-31T02:59:19;11.60;;;6.38;;
56255;SDS011;57229;51.432;-2.598;2023-10-31T03:01:45;10.43;;;6.07;;
56255;SDS011;57229;51.432;-2.598;2023-10-31T03:04:10;8.60;;;6.30;;
56255;SDS011;57229;51.432;-2.598;2023-10-31T03:06:36;12.02;;;6.22;;
56255;SDS011;57229;51.432;-2.598;2023-10-31T03:09:02;11.82;;;6.68;;
56255;SDS011;57229;51.432;-2.598;2023-10-31T03:11:28;11.82;;;6.55;;
56255;SDS011;57229;51.432;-2.598;2023-10-31T03:13:53;9.52;;;6.40;;
56255;SDS011;57229;51.432;-2.598;2023-10-31T03:16:21;10.73;;;6.53;;
56255;SDS011;57229;51.432;-2.598;2023-10-31T03:18:46;11.00;;;6.43;;
56255;SDS011;57229;51.432;-2.598;2023-10-31T03:21:12;9.65;;;6.28;;
56255;SDS011;57229;51.432;-2.598;2023-10-31T03:23:38;10.15;;;6.65;;
56255;SDS011;57229;51.432;-2.598;2023-10-31T03:26:04;8.70;;;6.13;;
56255;SDS011;57229;51.432;-2.598;2023-10-31T03:28:29;12.02;;;6.05;;
56255;SDS011;57229;51.432;-2.598;2023-10-31T03:30:55;8.48;;;6.20;;
56255;SDS011;57229;51.432;-2.598;2023-10-31T03:33:20;15.57;;;7.07;;
56255;SDS011;57229;51.432;-2.598;2023-10-31T03:35:47;12.05;;;6.43;;
56255;SDS011;57229;51.432;-2.598;2023-10-31T03:38:13;9.60;;;6.32;;
56255;SDS011;57229;51.432;-2.598;2023-10-31T03:40:38;9.45;;;6.53;;
56255;SDS011;57229;51.432;-2.598;2023-10-31T03:43:04;8.60;;;6.47;;
56255;SDS011;57229;51.432;-2.598;2023-10-31T03:45:30;12.45;;;6.38;;
56255;SDS011;57229;51.432;-2.598;2023-10-31T03:47:55;12.57;;;6.50;;
56255;SDS011;57229;51.432;-2.598;2023-10-31T03:50:21;9.27;;;6.43;;
56255;SDS011;57229;51.432;-2.598;2023-10-31T03:52:47;13.27;;;6.78;;
56255;SDS011;57229;51.432;-2.598;2023-10-31T03:55:13;14.48;;;6.90;;
56255;SDS011;57229;51.432;-2.598;2023-10-31T03:57:39;6.93;;;6.20;;
56255;SDS011;57229;51.432;-2.598;2023-10-31T04:00:05;7.95;;;6.50;;
56255;SDS011;57229;51.432;-2.598;2023-10-31T04:02:32;9.60;;;6.47;;
56255;SDS011;57229;51.432;-2.598;2023-10-31T04:04:58;10.88;;;6.70;;
56255;SDS011;57229;51.432;-2.598;2023-10-31T04:07:24;8.10;;;6.90;;
56255;SDS011;57229;51.432;-2.598;2023-10-31T04:09:49;10.23;;;6.78;;
56255;SDS011;57229;51.432;-2.598;2023-10-31T04:12:15;11.05;;;6.80;;
56255;SDS011;57229;51.432;-2.598;2023-10-31T04:14:41;14.43;;;7.15;;
56255;SDS011;57229;51.432;-2.598;2023-10-31T04:17:07;7.72;;;6.70;;
56255;SDS011;57229;51.432;-2.598;2023-10-31T04:19:32;9.35;;;6.65;;
56255;SDS011;57229;51.432;-2.598;2023-10-31T04:21:58;12.07;;;7.47;;
56255;SDS011;57229;51.432;-2.598;2023-10-31T04:24:23;10.35;;;6.70;;
56255;SDS011;57229;51.432;-2.598;2023-10-31T04:26:49;12.40;;;6.90;;
56255;SDS011;57229;51.432;-2.598;2023-10-31T04:29:15;15.52;;;7.30;;
56255;SDS011;57229;51.432;-2.598;2023-10-31T04:31:40;11.90;;;6.95;;
56255;SDS011;57229;51.432;-2.598;2023-10-31T04:34:06;10.20;;;6.35;;
56255;SDS011;57229;51.432;-2.598;2023-10-31T04:36:32;8.40;;;6.90;;
56255;SDS011;57229;51.432;-2.598;2023-10-31T04:38:57;8.27;;;6.85;;
56255;SDS011;57229;51.432;-2.598;2023-10-31T04:41:23;12.25;;;6.90;;
56255;SDS011;57229;51.432;-2.598;2023-10-31T04:43:48;13.82;;;8.20;;
56255;SDS011;57229;51.432;-2.598;2023-10-31T04:46:14;8.95;;;6.35;;
56255;SDS011;57229;51.432;-2.598;2023-10-31T04:48:40;12.25;;;6.70;;
56255;SDS011;57229;51.432;-2.598;2023-10-31T04:51:05;14.93;;;6.65;;
56255;SDS011;57229;51.432;-2.598;2023-10-31T04:53:31;10.45;;;6.70;;
56255;SDS011;57229;51.432;-2.598;2023-10-31T04:55:58;11.68;;;6.65;;
56255;SDS011;57229;51.432;-2.598;2023-10-31T04:58:24;9.68;;;6.65;;
56255;SDS011;57229;51.432;-2.598;2023-10-31T05:00:50;10.05;;;6.57;;
56255;SDS011;57229;51.432;-2.598;2023-10-31T05:03:15;9.98;;;6.60;;
56255;SDS011;57229;51.432;-2.598;2023-10-31T05:05:41;9.00;;;6.38;;
56255;SDS011;57229;51.432;-2.598;2023-10-31T05:08:07;9.73;;;6.57;;
56255;SDS011;57229;51.432;-2.598;2023-10-31T05:10:32;10.75;;;7.00;;
56255;SDS011;57229;51.432;-2.598;2023-10-31T05:12:58;10.65;;;6.80;;
56255;SDS011;57229;51.432;-2.598;2023-10-31T05:15:25;16.52;;;7.18;;
56255;SDS011;57229;51.432;-2.598;2023-10-31T05:17:51;10.80;;;6.90;;
56255;SDS011;57229;51.432;-2.598;2023-10-31T05:20:16;10.55;;;6.78;;
56255;SDS011;57229;51.432;-2.598;2023-10-31T05:22:42;9.52;;;6.85;;
56255;SDS011;57229;51.432;-2.598;2023-10-31T05:25:07;9.48;;;6.90;;
56255;SDS011;57229;51.432;-2.598;2023-10-31T05:27:33;7.35;;;6.43;;
56255;SDS011;57229;51.432;-2.598;2023-10-31T05:29:58;9.40;;;6.47;;
56255;SDS011;57229;51.432;-2.598;2023-10-31T05:32:24;7.93;;;6.57;;
56255;SDS011;57229;51.432;-2.598;2023-10-31T05:34:50;14.18;;;6.80;;
56255;SDS011;57229;51.432;-2.598;2023-10-31T05:37:15;13.23;;;7.20;;
56255;SDS011;57229;51.432;-2.598;2023-10-31T05:39:41;9.77;;;6.97;;
56255;SDS011;57229;51.432;-2.598;2023-10-31T05:42:06;7.28;;;6.57;;
56255;SDS011;57229;51.432;-2.598;2023-10-31T05:44:32;12.45;;;7.22;;
56255;SDS011;57229;51.432;-2.598;2023-10-31T05:46:57;7.40;;;6.70;;
56255;SDS011;57229;51.432;-2.598;2023-10-31T05:49:23;10.70;;;7.35;;
56255;SDS011;57229;51.432;-2.598;2023-10-31T05:51:52;16.35;;;7.53;;
56255;SDS011;57229;51.432;-2.598;2023-10-31T05:54:17;13.23;;;7.05;;
56255;SDS011;57229;51.432;-2.598;2023-10-31T05:56:43;14.43;;;8.02;;
56255;SDS011;57229;51.432;-2.598;2023-10-31T05:59:10;10.00;;;7.68;;
56255;SDS011;57229;51.432;-2.598;2023-10-31T06:01:36;13.88;;;7.55;;
56255;SDS011;57229;51.432;-2.598;2023-10-31T06:04:01;11.05;;;7.90;;
56255;SDS011;57229;51.432;-2.598;2023-10-31T06:06:27;18.85;;;8.13;;
56255;SDS011;57229;51.432;-2.598;2023-10-31T06:08:54;12.57;;;7.80;;
56255;SDS011;57229;51.432;-2.598;2023-10-31T06:11:20;10.45;;;7.85;;
56255;SDS011;57229;51.432;-2.598;2023-10-31T06:13:45;13.30;;;7.70;;
56255;SDS011;57229;51.432;-2.598;2023-10-31T06:16:12;11.32;;;7.97;;
56255;SDS011;57229;51.432;-2.598;2023-10-31T06:18:38;10.25;;;7.97;;
56255;SDS011;57229;51.432;-2.598;2023-10-31T06:21:05;9.02;;;8.10;;
56255;SDS011;57229;51.432;-2.598;2023-10-31T06:23:31;8.68;;;7.45;;
56255;SDS011;57229;51.432;-2.598;2023-10-31T06:25:56;8.48;;;7.40;;
56255;SDS011;57229;51.432;-2.598;2023-10-31T06:28:23;12.52;;;7.65;;
56255;SDS011;57229;51.432;-2.598;2023-10-31T06:30:48;14.50;;;7.72;;
56255;SDS011;57229;51.432;-2.598;2023-10-31T06:33:14;16.23;;;8.30;;
56255;SDS011;57229;51.432;-2.598;2023-10-31T06:35:40;11.98;;;7.63;;
56255;SDS011;57229;51.432;-2.598;2023-10-31T06:38:05;16.27;;;7.72;;
56255;SDS011;57229;51.432;-2.598;2023-10-31T06:40:31;10.77;;;7.50;;
56255;SDS011;57229;51.432;-2.598;2023-10-31T06:42:57;10.85;;;7.28;;
56255;SDS011;57229;51.432;-2.598;2023-10-31T06:45:22;17.58;;;8.07;;
56255;SDS011;57229;51.432;-2.598;2023-10-31T06:47:48;9.50;;;7.55;;
56255;SDS011;57229;51.432;-2.598;2023-10-31T06:50:13;8.95;;;7.45;;
56255;SDS011;57229;51.432;-2.598;2023-10-31T06:52:39;10.38;;;7.53;;
56255;SDS011;57229;51.432;-2.598;2023-10-31T06:55:05;11.60;;;7.10;;
56255;SDS011;57229;51.432;-2.598;2023-10-31T06:57:30;10.70;;;7.40;;
56255;SDS011;57229;51.432;-2.598;2023-10-31T06:59:56;9.48;;;7.38;;
56255;SDS011;57229;51.432;-2.598;2023-10-31T07:02:22;12.52;;;7.60;;
56255;SDS011;57229;51.432;-2.598;2023-10-31T07:04:47;14.48;;;9.48;;
56255;SDS011;57229;51.432;-2.598;2023-10-31T07:07:13;15.65;;;11.60;;
56255;SDS011;57229;51.432;-2.598;2023-10-31T07:09:38;8.65;;;7.82;;
56255;SDS011;57229;51.432;-2.598;2023-10-31T07:12:04;8.63;;;7.50;;
56255;SDS011;57229;51.432;-2.598;2023-10-31T07:14:30;9.07;;;7.85;;
56255;SDS011;57229;51.432;-2.598;2023-10-31T07:16:56;9.45;;;8.00;;
56255;SDS011;57229;51.432;-2.598;2023-10-31T07:19:22;8.45;;;7.50;;
56255;SDS011;57229;51.432;-2.598;2023-10-31T07:21:47;8.57;;;7.78;;
56255;SDS011;57229;51.432;-2.598;2023-10-31T07:24:13;11.65;;;8.68;;
56255;SDS011;57229;51.432;-2.598;2023-10-31T07:26:38;14.68;;;8.10;;
56255;SDS011;57229;51.432;-2.598;2023-10-31T07:29:04;12.00;;;8.85;;
56255;SDS011;57229;51.432;-2.598;2023-10-31T07:31:30;17.25;;;8.98;;
56255;SDS011;57229;51.432;-2.598;2023-10-31T07:33:56;15.43;;;8.55;;
56255;SDS011;57229;51.432;-2.598;2023-10-31T07:36:22;11.15;;;8.50;;
56255;SDS011;57229;51.432;-2.598;2023-10-31T07:38:48;11.00;;;8.00;;
56255;SDS011;57229;51.432;-2.598;2023-10-31T07:41:13;11.27;;;8.15;;
56255;SDS011;57229;51.432;-2.598;2023-10-31T07:43:39;12.93;;;8.45;;
56255;SDS011;57229;51.432;-2.598;2023-10-31T07:46:04;11.98;;;8.40;;
56255;SDS011;57229;51.432;-2.598;2023-10-31T07:48:30;11.63;;;8.82;;
56255;SDS011;57229;51.432;-2.598;2023-10-31T07:50:56;9.93;;;8.80;;
56255;SDS011;57229;51.432;-2.598;2023-10-31T07:53:22;14.85;;;8.15;;
56255;SDS011;57229;51.432;-2.598;2023-10-31T07:55:48;17.05;;;8.40;;
56255;SDS011;57229;51.432;-2.598;2023-10-31T07:58:14;13.82;;;8.15;;
56255;SDS011;57229;51.432;-2.598;2023-10-31T08:00:40;10.55;;;8.88;;
56255;SDS011;57229;51.432;-2.598;2023-10-31T08:03:06;11.25;;;8.73;;
56255;SDS011;57229;51.432;-2.598;2023-10-31T08:05:31;8.90;;;8.00;;
56255;SDS011;57229;51.432;-2.598;2023-10-31T08:07:57;11.77;;;8.48;;
56255;SDS011;57229;51.432;-2.598;2023-10-31T08:10:23;16.17;;;8.07;;
56255;SDS011;57229;51.432;-2.598;2023-10-31T08:12:49;11.05;;;8.20;;
56255;SDS011;57229;51.432;-2.598;2023-10-31T08:15:14;9.93;;;8.55;;
56255;SDS011;57229;51.432;-2.598;2023-10-31T08:17:41;12.07;;;8.18;;
56255;SDS011;57229;51.432;-2.598;2023-10-31T08:20:07;12.73;;;7.88;;
56255;SDS011;57229;51.432;-2.598;2023-10-31T08:22:35;23.73;;;11.80;;
56255;SDS011;57229;51.432;-2.598;2023-10-31T08:25:02;19.88;;;11.43;;
56255;SDS011;57229;51.432;-2.598;2023-10-31T08:27:28;10.70;;;7.97;;
56255;SDS011;57229;51.432;-2.598;2023-10-31T08:29:53;14.05;;;7.50;;
56255;SDS011;57229;51.432;-2.598;2023-10-31T08:32:19;16.30;;;7.63;;
56255;SDS011;57229;51.432;-2.598;2023-10-31T08:34:44;10.05;;;7.00;;
56255;SDS011;57229;51.432;-2.598;2023-10-31T08:37:10;12.40;;;7.18;;
56255;SDS011;57229;51.432;-2.598;2023-10-31T08:39:36;8.20;;;7.20;;
56255;SDS011;57229;51.432;-2.598;2023-10-31T08:42:01;8.48;;;6.25;;
56255;SDS011;57229;51.432;-2.598;2023-10-31T08:44:27;7.95;;;6.10;;
56255;SDS011;57229;51.432;-2.598;2023-10-31T08:46:52;11.75;;;6.40;;
56255;SDS011;57229;51.432;-2.598;2023-10-31T08:49:18;7.95;;;6.18;;
56255;SDS011;57229;51.432;-2.598;2023-10-31T08:51:44;8.85;;;6.25;;
56255;SDS011;57229;51.432;-2.598;2023-10-31T08:54:10;7.28;;;6.30;;
56255;SDS011;57229;51.432;-2.598;2023-10-31T08:56:35;9.45;;;6.00;;
56255;SDS011;57229;51.432;-2.598;2023-10-31T08:59:01;9.02;;;6.28;;
56255;SDS011;57229;51.432;-2.598;2023-10-31T09:01:27;8.32;;;6.40;;
56255;SDS011;57229;51.432;-2.598;2023-10-31T09:03:55;7.47;;;6.15;;
56255;SDS011;57229;51.432;-2.598;2023-10-31T09:06:23;7.93;;;6.15;;
56255;SDS011;57229;51.432;-2.598;2023-10-31T09:08:49;8.18;;;5.80;;
56255;SDS011;57229;51.432;-2.598;2023-10-31T09:11:15;8.25;;;6.00;;
56255;SDS011;57229;51.432;-2.598;2023-10-31T09:13:40;7.63;;;5.93;;
56255;SDS011;57229;51.432;-2.598;2023-10-31T09:16:06;11.25;;;5.70;;
56255;SDS011;57229;51.432;-2.598;2023-10-31T09:18:32;7.10;;;5.63;;
56255;SDS011;57229;51.432;-2.598;2023-10-31T09:20:57;7.38;;;5.10;;
56255;SDS011;57229;51.432;-2.598;2023-10-31T09:23:23;7.07;;;4.90;;
56255;SDS011;57229;51.432;-2.598;2023-10-31T09:25:49;7.68;;;5.68;;
56255;SDS011;57229;51.432;-2.598;2023-10-31T09:28:14;5.70;;;5.10;;
56255;SDS011;57229;51.432;-2.598;2023-10-31T09:30:40;5.20;;;4.75;;
56255;SDS011;57229;51.432;-2.598;2023-10-31T09:33:06;8.05;;;5.35;;
56255;SDS011;57229;51.432;-2.598;2023-10-31T09:35:31;10.73;;;4.85;;
56255;SDS011;57229;51.432;-2.598;2023-10-31T09:37:57;5.10;;;4.60;;
56255;SDS011;57229;51.432;-2.598;2023-10-31T09:40:22;5.22;;;4.60;;
56255;SDS011;57229;51.432;-2.598;2023-10-31T09:42:48;5.40;;;4.85;;
56255;SDS011;57229;51.432;-2.598;2023-10-31T09:45:14;5.50;;;5.10;;
56255;SDS011;57229;51.432;-2.598;2023-10-31T09:47:40;6.82;;;4.93;;
56255;SDS011;57229;51.432;-2.598;2023-10-31T09:50:07;4.90;;;4.57;;
56255;SDS011;57229;51.432;-2.598;2023-10-31T09:52:35;5.28;;;4.68;;
56255;SDS011;57229;51.432;-2.598;2023-10-31T09:55:01;5.00;;;4.70;;
56255;SDS011;57229;51.432;-2.598;2023-10-31T09:57:28;4.85;;;4.30;;
56255;SDS011;57229;51.432;-2.598;2023-10-31T09:59:54;6.55;;;4.20;;
56255;SDS011;57229;51.432;-2.598;2023-10-31T10:02:19;4.68;;;4.28;;
56255;SDS011;57229;51.432;-2.598;2023-10-31T10:04:45;5.07;;;4.10;;
56255;SDS011;57229;51.432;-2.598;2023-10-31T10:07:15;4.70;;;4.30;;
56255;SDS011;57229;51.432;-2.598;2023-10-31T10:09:43;5.65;;;4.13;;
56255;SDS011;57229;51.432;-2.598;2023-10-31T10:12:11;4.22;;;3.83;;
56255;SDS011;57229;51.432;-2.598;2023-10-31T10:14:38;4.82;;;4.47;;
56255;SDS011;57229;51.432;-2.598;2023-10-31T10:17:17;4.90;;;4.50;;
56255;SDS011;57229;51.432;-2.598;2023-10-31T10:19:45;4.70;;;4.28;;
56255;SDS011;57229;51.432;-2.598;2023-10-31T10:22:11;5.25;;;4.80;;
56255;SDS011;57229;51.432;-2.598;2023-10-31T10:24:40;4.90;;;4.60;;
56255;SDS011;57229;51.432;-2.598;2023-10-31T10:27:07;7.28;;;4.93;;
56255;SDS011;57229;51.432;-2.598;2023-10-31T10:29:33;8.70;;;5.30;;
56255;SDS011;57229;51.432;-2.598;2023-10-31T10:32:00;5.85;;;5.10;;
56255;SDS011;57229;51.432;-2.598;2023-10-31T10:34:25;7.82;;;5.07;;
56255;SDS011;57229;51.432;-2.598;2023-10-31T10:36:51;5.30;;;4.88;;
56255;SDS011;57229;51.432;-2.598;2023-10-31T10:39:19;5.20;;;4.88;;
56255;SDS011;57229;51.432;-2.598;2023-10-31T10:41:55;5.70;;;5.20;;
56255;SDS011;57229;51.432;-2.598;2023-10-31T10:44:35;5.93;;;5.32;;
56255;SDS011;57229;51.432;-2.598;2023-10-31T10:47:02;7.35;;;4.90;;
56255;SDS011;57229;51.432;-2.598;2023-10-31T10:49:29;5.13;;;4.60;;
56255;SDS011;57229;51.432;-2.598;2023-10-31T10:54:50;5.55;;;4.70;;
56255;SDS011;57229;51.432;-2.598;2023-10-31T11:00:09;5.35;;;4.85;;
56255;SDS011;57229;51.432;-2.598;2023-10-31T11:02:47;9.52;;;4.60;;
56255;SDS011;57229;51.432;-2.598;2023-10-31T11:05:33;5.25;;;4.75;;
56255;SDS011;57229;51.432;-2.598;2023-10-31T11:08:00;5.30;;;4.80;;
56255;SDS011;57229;51.432;-2.598;2023-10-31T11:10:27;5.57;;;5.07;;
56255;SDS011;57229;51.432;-2.598;2023-10-31T11:13:04;5.30;;;4.88;;
56255;SDS011;57229;51.432;-2.598;2023-10-31T11:15:36;7.25;;;5.10;;
56255;SDS011;57229;51.432;-2.598;2023-10-31T11:18:02;6.25;;;4.50;;
56255;SDS011;57229;51.432;-2.598;2023-10-31T11:20:29;5.50;;;3.90;;
56255;SDS011;57229;51.432;-2.598;2023-10-31T11:22:56;6.10;;;4.60;;
56255;SDS011;57229;51.432;-2.598;2023-10-31T11:25:29;6.00;;;4.28;;
56255;SDS011;57229;51.432;-2.598;2023-10-31T11:27:57;8.02;;;4.60;;
56255;SDS011;57229;51.432;-2.598;2023-10-31T11:30:35;5.80;;;4.57;;
56255;SDS011;57229;51.432;-2.598;2023-10-31T11:33:01;6.15;;;4.60;;
56255;SDS011;57229;51.432;-2.598;2023-10-31T11:35:34;8.65;;;4.85;;
56255;SDS011;57229;51.432;-2.598;2023-10-31T11:38:04;7.65;;;4.50;;
56255;SDS011;57229;51.432;-2.598;2023-10-31T11:40:34;7.15;;;4.40;;
56255;SDS011;57229;51.432;-2.598;2023-10-31T11:43:06;8.63;;;5.10;;
56255;SDS011;57229;51.432;-2.598;2023-10-31T11:45:34;5.18;;;4.60;;
56255;SDS011;57229;51.432;-2.598;2023-10-31T11:48:02;6.95;;;5.05;;
56255;SDS011;57229;51.432;-2.598;2023-10-31T11:50:29;7.13;;;5.50;;
56255;SDS011;57229;51.432;-2.598;2023-10-31T11:53:01;7.32;;;5.32;;
56255;SDS011;57229;51.432;-2.598;2023-10-31T11:55:41;8.00;;;5.30;;
56255;SDS011;57229;51.432;-2.598;2023-10-31T11:58:15;8.20;;;5.20;;
56255;SDS011;57229;51.432;-2.598;2023-10-31T12:00:48;7.80;;;4.60;;
56255;SDS011;57229;51.432;-2.598;2023-10-31T12:03:19;9.13;;;4.80;;
56255;SDS011;57229;51.432;-2.598;2023-10-31T12:05:55;6.68;;;4.47;;
56255;SDS011;57229;51.432;-2.598;2023-10-31T12:11:05;9.32;;;4.88;;
56255;SDS011;57229;51.432;-2.598;2023-10-31T12:13:35;7.20;;;4.32;;
56255;SDS011;57229;51.432;-2.598;2023-10-31T12:16:02;5.63;;;4.00;;
56255;SDS011;57229;51.432;-2.598;2023-10-31T12:18:29;6.72;;;4.20;;
56255;SDS011;57229;51.432;-2.598;2023-10-31T12:20:55;6.18;;;3.88;;
56255;SDS011;57229;51.432;-2.598;2023-10-31T12:23:20;6.40;;;4.03;;
56255;SDS011;57229;51.432;-2.598;2023-10-31T12:25:47;5.75;;;4.10;;
56255;SDS011;57229;51.432;-2.598;2023-10-31T12:28:17;4.78;;;4.40;;
56255;SDS011;57229;51.432;-2.598;2023-10-31T12:30:46;4.97;;;4.18;;
56255;SDS011;57229;51.432;-2.598;2023-10-31T12:33:12;8.15;;;4.28;;
56255;SDS011;57229;51.432;-2.598;2023-10-31T12:35:38;7.32;;;4.28;;
56255;SDS011;57229;51.432;-2.598;2023-10-31T12:38:05;8.52;;;4.05;;
56255;SDS011;57229;51.432;-2.598;2023-10-31T12:40:31;7.55;;;4.45;;
56255;SDS011;57229;51.432;-2.598;2023-10-31T12:42:57;6.68;;;4.40;;
56255;SDS011;57229;51.432;-2.598;2023-10-31T12:45:24;5.97;;;3.80;;
56255;SDS011;57229;51.432;-2.598;2023-10-31T12:48:08;8.18;;;4.22;;
56255;SDS011;57229;51.432;-2.598;2023-10-31T12:50:36;8.93;;;4.70;;
56255;SDS011;57229;51.432;-2.598;2023-10-31T12:53:03;4.50;;;4.00;;
56255;SDS011;57229;51.432;-2.598;2023-10-31T12:55:30;8.85;;;4.32;;
56255;SDS011;57229;51.432;-2.598;2023-10-31T12:58:03;8.85;;;4.28;;
56255;SDS011;57229;51.432;-2.598;2023-10-31T13:00:33;6.07;;;4.18;;
56255;SDS011;57229;51.432;-2.598;2023-10-31T13:03:00;7.47;;;4.30;;
56255;SDS011;57229;51.432;-2.598;2023-10-31T13:05:26;7.70;;;3.95;;
56255;SDS011;57229;51.432;-2.598;2023-10-31T13:07:54;9.90;;;4.22;;
56255;SDS011;57229;51.432;-2.598;2023-10-31T13:10:22;10.02;;;4.20;;
56255;SDS011;57229;51.432;-2.598;2023-10-31T13:12:49;6.80;;;4.40;;
56255;SDS011;57229;51.432;-2.598;2023-10-31T13:15:15;5.57;;;3.97;;
56255;SDS011;57229;51.432;-2.598;2023-10-31T13:17:41;8.00;;;4.22;;
56255;SDS011;57229;51.432;-2.598;2023-10-31T13:20:11;6.90;;;4.13;;
56255;SDS011;57229;51.432;-2.598;2023-10-31T13:22:37;6.57;;;4.50;;
56255;SDS011;57229;51.432;-2.598;2023-10-31T13:25:04;4.57;;;4.18;;
56255;SDS011;57229;51.432;-2.598;2023-10-31T13:27:32;4.63;;;3.83;;
56255;SDS011;57229;51.432;-2.598;2023-10-31T13:30:18;6.13;;;3.88;;
56255;SDS011;57229;51.432;-2.598;2023-10-31T13:32:44;4.97;;;3.95;;
56255;SDS011;57229;51.432;-2.598;2023-10-31T13:35:09;9.25;;;4.38;;
56255;SDS011;57229;51.432;-2.598;2023-10-31T13:37:36;5.97;;;3.55;;
56255;SDS011;57229;51.432;-2.598;2023-10-31T13:40:02;9.70;;;3.63;;
56255;SDS011;57229;51.432;-2.598;2023-10-31T13:42:28;4.40;;;4.00;;
56255;SDS011;57229;51.432;-2.598;2023-10-31T13:44:54;7.13;;;4.40;;
56255;SDS011;57229;51.432;-2.598;2023-10-31T13:47:20;5.70;;;4.20;;
56255;SDS011;57229;51.432;-2.598;2023-10-31T13:49:48;7.45;;;4.53;;
56255;SDS011;57229;51.432;-2.598;2023-10-31T13:52:14;4.85;;;4.45;;
56255;SDS011;57229;51.432;-2.598;2023-10-31T13:54:41;8.30;;;4.80;;
56255;SDS011;57229;51.432;-2.598;2023-10-31T13:57:08;9.20;;;4.75;;
56255;SDS011;57229;51.432;-2.598;2023-10-31T13:59:34;5.43;;;4.50;;
56255;SDS011;57229;51.432;-2.598;2023-10-31T14:01:59;6.60;;;4.57;;
56255;SDS011;57229;51.432;-2.598;2023-10-31T14:04:25;4.93;;;4.50;;
56255;SDS011;57229;51.432;-2.598;2023-10-31T14:06:51;6.25;;;5.35;;
56255;SDS011;57229;51.432;-2.598;2023-10-31T14:09:16;7.70;;;5.28;;
56255;SDS011;57229;51.432;-2.598;2023-10-31T14:11:42;5.22;;;4.72;;
56255;SDS011;57229;51.432;-2.598;2023-10-31T14:14:08;5.93;;;4.50;;
56255;SDS011;57229;51.432;-2.598;2023-10-31T14:16:38;5.85;;;4.10;;
56255;SDS011;57229;51.432;-2.598;2023-10-31T14:19:05;9.23;;;5.10;;
56255;SDS011;57229;51.432;-2.598;2023-10-31T14:21:32;11.55;;;5.28;;
56255;SDS011;57229;51.432;-2.598;2023-10-31T14:23:58;5.78;;;5.10;;
56255;SDS011;57229;51.432;-2.598;2023-10-31T14:26:24;6.85;;;4.82;;
56255;SDS011;57229;51.432;-2.598;2023-10-31T14:28:51;5.55;;;5.05;;
56255;SDS011;57229;51.432;-2.598;2023-10-31T14:31:17;8.75;;;4.80;;
56255;SDS011;57229;51.432;-2.598;2023-10-31T14:33:43;4.97;;;4.32;;